• Join FlightAware (Why Join?)
  • Login
  • US Flag 
04:15PM EST


 

Airport Tracker/Info


-or-


 

Live Flight TrackerFlight Track Log ✈ FIN368 ✈ 20-Jun-2014 ✈ EFOU / OUL - EFHK / HEL

Flight Track Log - Related Links

Times and Time Zones

All times are in EDT time to prevent confusion due to time zone crossing. See the FIN368 flight status page for this flight to view local times or setup timezone preferences in your user account.

Time Position Orientation Groundspeed Altitude Reporting Facility
EDT Latitude Longitude Course Direction KTS MPH feet Rate Location/Type
11:13AM 64.2718 25.2908 182° South  Level Estimated
11:14AM 64.1505 25.2794 182° South  Level Estimated
11:15AM 64.0292 25.2681 182° South  Level Estimated
11:16AM 63.9080 25.2568 182° South  Level Estimated
11:17AM 63.7867 25.2457 182° South  Level Estimated
11:18AM 63.6654 25.2347 182° South  Level Estimated
11:19AM 63.5442 25.2238 182° South  Level Estimated
11:20AM 63.4229 25.2129 182° South  Level Estimated
11:21AM 63.3016 25.2022 182° South  Level Estimated
11:22AM 63.1803 25.1915 182° South  Level Estimated
11:23AM 63.0591 25.1810 182° South  Level Estimated
11:24AM 62.9378 25.1705 182° South  Level Estimated
11:25AM 62.8165 25.1601 182° South  Level Estimated
11:26AM 62.6952 25.1498 182° South  Level Estimated
11:27AM 62.5740 25.1395 182° South  Level Estimated
11:28AM 62.4527 25.1294 182° South  Level Estimated
11:29AM 62.3314 25.1193 182° South  Level Estimated
11:30AM 62.2101 25.1094 182° South  Level Estimated
11:31AM 62.0888 25.0995 182° South  Level Estimated
11:32AM 61.9676 25.0896 182° South  Level Estimated
11:33AM 61.8463 25.0799 182° South  Level Estimated
11:34AM 61.7250 25.0702 182° South  Level Estimated
11:35AM 61.6037 25.0606 182° South  Level Estimated
11:36AM 61.4824 25.0511 182° South  Level Estimated
11:37AM 61.3611 25.0417 182° South  Level Estimated
11:38AM 61.2399 25.0323 182° South  Level Estimated
11:39AM 61.1186 25.0230 182° South  Level Estimated
11:40AM 60.9973 25.0138 182° South  Level Estimated
11:41AM 60.8760 25.0046 182° South  Level Estimated
11:42AM 60.7547 24.9956 182° South  Level Estimated
11:43AM 60.6334 24.9865 182° South  Level Estimated
11:44AM 60.5121 24.9776 182° South  Level Estimated
11:45AM 60.3909 24.9687 182° South  Level Estimated
11:46AM 60.3172 24.9633 182° South  Level Estimated
11:47AM 60.3172 24.9633 North  Level Estimated
11:48AM 60.3172 24.9633 North  Level Estimated
11:49AM 60.3172 24.9633 North  Level Estimated
11:50AM 60.3172 24.9633 North  Level Estimated
11:51AM 60.3172 24.9633 North  Level Estimated
11:52AM 60.3172 24.9633 North  Level Estimated
11:53AM 60.3172 24.9633 North  Level Estimated
11:54AM 60.3172 24.9633 North  Level Estimated
11:55AM 60.3172 24.9633 North  Level Estimated
11:56AM 60.3172 24.9633 North  Level Estimated
11:57AM 60.3172 24.9633 North  Level Estimated
11:58AM 60.3172 24.9633 North  Level Estimated